sensor_id;sensor_type;location;lat;lon;timestamp;P1;durP1;ratioP1;P2;durP2;ratioP2
9124;SDS011;4597;48.730;9.114;2022-12-18T00:01:31;40.90;;;23.60;;
9124;SDS011;4597;48.730;9.114;2022-12-18T00:03:59;45.93;;;24.87;;
9124;SDS011;4597;48.730;9.114;2022-12-18T00:06:26;72.33;;;36.50;;
9124;SDS011;4597;48.730;9.114;2022-12-18T00:08:54;68.47;;;34.87;;
9124;SDS011;4597;48.730;9.114;2022-12-18T00:11:22;61.13;;;32.37;;
9124;SDS011;4597;48.730;9.114;2022-12-18T00:13:50;55.07;;;26.80;;
9124;SDS011;4597;48.730;9.114;2022-12-18T00:16:19;53.07;;;28.23;;
9124;SDS011;4597;48.730;9.114;2022-12-18T00:18:46;64.27;;;33.27;;
9124;SDS011;4597;48.730;9.114;2022-12-18T00:21:13;64.43;;;30.37;;
9124;SDS011;4597;48.730;9.114;2022-12-18T00:23:40;54.17;;;27.73;;
9124;SDS011;4597;48.730;9.114;2022-12-18T00:26:10;49.40;;;27.57;;
9124;SDS011;4597;48.730;9.114;2022-12-18T00:28:37;50.93;;;27.97;;
9124;SDS011;4597;48.730;9.114;2022-12-18T00:31:04;58.57;;;29.33;;
9124;SDS011;4597;48.730;9.114;2022-12-18T00:33:31;59.93;;;30.67;;
9124;SDS011;4597;48.730;9.114;2022-12-18T00:36:03;55.67;;;30.67;;
9124;SDS011;4597;48.730;9.114;2022-12-18T00:38:30;55.10;;;30.33;;
9124;SDS011;4597;48.730;9.114;2022-12-18T00:40:55;55.47;;;27.67;;
9124;SDS011;4597;48.730;9.114;2022-12-18T00:43:21;47.90;;;25.73;;
9124;SDS011;4597;48.730;9.114;2022-12-18T00:45:46;50.47;;;24.80;;
9124;SDS011;4597;48.730;9.114;2022-12-18T00:48:12;49.17;;;24.77;;
9124;SDS011;4597;48.730;9.114;2022-12-18T00:50:37;42.87;;;24.93;;
9124;SDS011;4597;48.730;9.114;2022-12-18T00:53:03;48.87;;;24.37;;
9124;SDS011;4597;48.730;9.114;2022-12-18T00:55:29;45.07;;;25.20;;
9124;SDS011;4597;48.730;9.114;2022-12-18T00:57:54;45.10;;;24.43;;
9124;SDS011;4597;48.730;9.114;2022-12-18T01:00:20;47.87;;;24.37;;
9124;SDS011;4597;48.730;9.114;2022-12-18T01:02:47;43.17;;;24.40;;
9124;SDS011;4597;48.730;9.114;2022-12-18T01:05:13;43.63;;;24.03;;
9124;SDS011;4597;48.730;9.114;2022-12-18T01:07:39;51.27;;;26.07;;
9124;SDS011;4597;48.730;9.114;2022-12-18T01:10:05;44.73;;;24.80;;
9124;SDS011;4597;48.730;9.114;2022-12-18T01:12:32;47.20;;;24.33;;
9124;SDS011;4597;48.730;9.114;2022-12-18T01:14:58;56.17;;;26.07;;
9124;SDS011;4597;48.730;9.114;2022-12-18T01:17:23;44.73;;;24.27;;
9124;SDS011;4597;48.730;9.114;2022-12-18T01:19:49;51.80;;;27.33;;
9124;SDS011;4597;48.730;9.114;2022-12-18T01:22:15;55.87;;;26.47;;
9124;SDS011;4597;48.730;9.114;2022-12-18T01:24:40;54.67;;;25.97;;
9124;SDS011;4597;48.730;9.114;2022-12-18T01:27:06;49.63;;;25.37;;
9124;SDS011;4597;48.730;9.114;2022-12-18T01:29:31;53.30;;;25.37;;
9124;SDS011;4597;48.730;9.114;2022-12-18T01:31:57;43.93;;;23.93;;
9124;SDS011;4597;48.730;9.114;2022-12-18T01:34:23;48.87;;;26.10;;
9124;SDS011;4597;48.730;9.114;2022-12-18T01:36:49;52.27;;;25.00;;
9124;SDS011;4597;48.730;9.114;2022-12-18T01:39:17;46.57;;;23.97;;
9124;SDS011;4597;48.730;9.114;2022-12-18T01:41:42;48.37;;;23.50;;
9124;SDS011;4597;48.730;9.114;2022-12-18T01:49:48;48.63;;;24.70;;
9124;SDS011;4597;48.730;9.114;2022-12-18T01:52:14;46.27;;;23.57;;
9124;SDS011;4597;48.730;9.114;2022-12-18T01:54:40;45.60;;;24.00;;
9124;SDS011;4597;48.730;9.114;2022-12-18T01:57:06;43.73;;;25.23;;
9124;SDS011;4597;48.730;9.114;2022-12-18T01:59:32;51.53;;;25.20;;
9124;SDS011;4597;48.730;9.114;2022-12-18T02:01:59;44.03;;;23.93;;
9124;SDS011;4597;48.730;9.114;2022-12-18T02:04:25;48.20;;;24.70;;
9124;SDS011;4597;48.730;9.114;2022-12-18T02:06:59;43.97;;;23.83;;
9124;SDS011;4597;48.730;9.114;2022-12-18T02:09:50;39.87;;;21.77;;
9124;SDS011;4597;48.730;9.114;2022-12-18T02:12:24;49.13;;;22.73;;
9124;SDS011;4597;48.730;9.114;2022-12-18T02:17:45;43.80;;;23.23;;
9124;SDS011;4597;48.730;9.114;2022-12-18T02:20:34;43.67;;;22.40;;
9124;SDS011;4597;48.730;9.114;2022-12-18T02:26:04;42.07;;;21.73;;
9124;SDS011;4597;48.730;9.114;2022-12-18T02:28:37;43.23;;;21.97;;
9124;SDS011;4597;48.730;9.114;2022-12-18T02:31:08;48.40;;;23.87;;
9124;SDS011;4597;48.730;9.114;2022-12-18T02:33:39;39.90;;;21.50;;
9124;SDS011;4597;48.730;9.114;2022-12-18T02:36:06;43.13;;;21.63;;
9124;SDS011;4597;48.730;9.114;2022-12-18T02:38:34;38.03;;;21.17;;
9124;SDS011;4597;48.730;9.114;2022-12-18T02:41:00;38.07;;;23.37;;
9124;SDS011;4597;48.730;9.114;2022-12-18T02:43:27;39.60;;;21.13;;
9124;SDS011;4597;48.730;9.114;2022-12-18T02:45:56;43.43;;;22.60;;
9124;SDS011;4597;48.730;9.114;2022-12-18T02:48:28;43.63;;;22.23;;
9124;SDS011;4597;48.730;9.114;2022-12-18T02:51:00;42.40;;;22.00;;
9124;SDS011;4597;48.730;9.114;2022-12-18T02:53:42;41.10;;;21.63;;
9124;SDS011;4597;48.730;9.114;2022-12-18T02:56:26;42.73;;;23.53;;
9124;SDS011;4597;48.730;9.114;2022-12-18T02:59:09;42.73;;;22.10;;
9124;SDS011;4597;48.730;9.114;2022-12-18T03:04:27;43.07;;;22.53;;
9124;SDS011;4597;48.730;9.114;2022-12-18T03:07:01;41.33;;;23.20;;
9124;SDS011;4597;48.730;9.114;2022-12-18T03:09:33;48.73;;;23.27;;
9124;SDS011;4597;48.730;9.114;2022-12-18T03:12:08;39.73;;;21.50;;
9124;SDS011;4597;48.730;9.114;2022-12-18T03:14:48;40.50;;;21.67;;
9124;SDS011;4597;48.730;9.114;2022-12-18T03:17:29;39.03;;;21.83;;
9124;SDS011;4597;48.730;9.114;2022-12-18T03:19:57;43.17;;;22.17;;
9124;SDS011;4597;48.730;9.114;2022-12-18T03:22:27;44.87;;;23.13;;
9124;SDS011;4597;48.730;9.114;2022-12-18T03:24:57;43.60;;;21.10;;
9124;SDS011;4597;48.730;9.114;2022-12-18T03:27:26;40.70;;;21.97;;
9124;SDS011;4597;48.730;9.114;2022-12-18T03:29:56;40.17;;;22.23;;
9124;SDS011;4597;48.730;9.114;2022-12-18T03:32:33;42.10;;;22.53;;
9124;SDS011;4597;48.730;9.114;2022-12-18T03:35:05;47.60;;;25.00;;
9124;SDS011;4597;48.730;9.114;2022-12-18T03:37:33;48.67;;;25.50;;
9124;SDS011;4597;48.730;9.114;2022-12-18T03:39:59;42.20;;;22.53;;
9124;SDS011;4597;48.730;9.114;2022-12-18T03:47:47;38.00;;;21.97;;
9124;SDS011;4597;48.730;9.114;2022-12-18T03:53:29;42.87;;;21.13;;
9124;SDS011;4597;48.730;9.114;2022-12-18T03:56:14;42.00;;;21.77;;
9124;SDS011;4597;48.730;9.114;2022-12-18T03:58:42;43.80;;;22.67;;
9124;SDS011;4597;48.730;9.114;2022-12-18T04:01:09;37.53;;;21.60;;
9124;SDS011;4597;48.730;9.114;2022-12-18T04:03:38;41.23;;;21.13;;
9124;SDS011;4597;48.730;9.114;2022-12-18T04:06:04;38.03;;;21.40;;
9124;SDS011;4597;48.730;9.114;2022-12-18T04:08:31;38.50;;;20.97;;
9124;SDS011;4597;48.730;9.114;2022-12-18T04:10:59;40.27;;;22.07;;
9124;SDS011;4597;48.730;9.114;2022-12-18T04:13:32;38.23;;;20.57;;
9124;SDS011;4597;48.730;9.114;2022-12-18T04:16:02;36.90;;;22.07;;
9124;SDS011;4597;48.730;9.114;2022-12-18T04:18:28;42.50;;;21.17;;
9124;SDS011;4597;48.730;9.114;2022-12-18T04:20:53;39.67;;;20.83;;
9124;SDS011;4597;48.730;9.114;2022-12-18T04:23:19;39.83;;;19.87;;
9124;SDS011;4597;48.730;9.114;2022-12-18T04:25:45;39.50;;;20.83;;
9124;SDS011;4597;48.730;9.114;2022-12-18T04:28:12;47.00;;;21.60;;
9124;SDS011;4597;48.730;9.114;2022-12-18T04:30:38;39.17;;;21.33;;
9124;SDS011;4597;48.730;9.114;2022-12-18T04:33:03;34.97;;;18.37;;
9124;SDS011;4597;48.730;9.114;2022-12-18T04:35:29;33.60;;;17.63;;
9124;SDS011;4597;48.730;9.114;2022-12-18T04:37:55;30.93;;;16.80;;
9124;SDS011;4597;48.730;9.114;2022-12-18T04:40:20;30.13;;;17.47;;
9124;SDS011;4597;48.730;9.114;2022-12-18T04:42:46;37.17;;;17.87;;
9124;SDS011;4597;48.730;9.114;2022-12-18T04:45:11;33.63;;;16.93;;
9124;SDS011;4597;48.730;9.114;2022-12-18T04:47:37;34.50;;;17.63;;
9124;SDS011;4597;48.730;9.114;2022-12-18T04:50:02;35.17;;;19.47;;
9124;SDS011;4597;48.730;9.114;2022-12-18T04:52:28;33.77;;;17.83;;
9124;SDS011;4597;48.730;9.114;2022-12-18T04:54:54;33.17;;;17.30;;
9124;SDS011;4597;48.730;9.114;2022-12-18T04:57:19;35.03;;;17.77;;
9124;SDS011;4597;48.730;9.114;2022-12-18T04:59:45;32.03;;;17.97;;
9124;SDS011;4597;48.730;9.114;2022-12-18T05:02:10;31.83;;;17.80;;
9124;SDS011;4597;48.730;9.114;2022-12-18T05:04:36;36.70;;;18.20;;
9124;SDS011;4597;48.730;9.114;2022-12-18T05:07:02;32.73;;;18.13;;
9124;SDS011;4597;48.730;9.114;2022-12-18T05:09:27;34.10;;;17.83;;
9124;SDS011;4597;48.730;9.114;2022-12-18T05:11:53;34.20;;;18.17;;
9124;SDS011;4597;48.730;9.114;2022-12-18T05:14:18;30.00;;;18.53;;
9124;SDS011;4597;48.730;9.114;2022-12-18T05:16:44;33.60;;;18.40;;
9124;SDS011;4597;48.730;9.114;2022-12-18T05:19:10;29.97;;;17.73;;
9124;SDS011;4597;48.730;9.114;2022-12-18T05:21:35;36.40;;;17.83;;
9124;SDS011;4597;48.730;9.114;2022-12-18T05:24:01;33.73;;;17.93;;
9124;SDS011;4597;48.730;9.114;2022-12-18T05:26:26;32.13;;;17.57;;
9124;SDS011;4597;48.730;9.114;2022-12-18T05:28:52;34.10;;;18.47;;
9124;SDS011;4597;48.730;9.114;2022-12-18T05:31:17;32.60;;;17.33;;
9124;SDS011;4597;48.730;9.114;2022-12-18T05:33:43;34.30;;;18.10;;
9124;SDS011;4597;48.730;9.114;2022-12-18T05:36:09;32.73;;;17.40;;
9124;SDS011;4597;48.730;9.114;2022-12-18T05:38:36;31.77;;;17.70;;
9124;SDS011;4597;48.730;9.114;2022-12-18T05:41:03;31.00;;;17.30;;
9124;SDS011;4597;48.730;9.114;2022-12-18T05:43:29;32.37;;;17.13;;
9124;SDS011;4597;48.730;9.114;2022-12-18T05:45:55;30.37;;;16.70;;
9124;SDS011;4597;48.730;9.114;2022-12-18T05:48:21;30.43;;;17.43;;
9124;SDS011;4597;48.730;9.114;2022-12-18T05:50:48;32.83;;;17.87;;
9124;SDS011;4597;48.730;9.114;2022-12-18T05:53:15;29.43;;;17.07;;
9124;SDS011;4597;48.730;9.114;2022-12-18T05:55:43;26.83;;;14.90;;
9124;SDS011;4597;48.730;9.114;2022-12-18T05:58:09;30.90;;;16.33;;
9124;SDS011;4597;48.730;9.114;2022-12-18T06:00:37;30.73;;;16.97;;
9124;SDS011;4597;48.730;9.114;2022-12-18T06:03:05;28.37;;;17.57;;
9124;SDS011;4597;48.730;9.114;2022-12-18T06:05:38;31.30;;;15.80;;
9124;SDS011;4597;48.730;9.114;2022-12-18T06:08:05;27.80;;;16.20;;
9124;SDS011;4597;48.730;9.114;2022-12-18T06:10:31;29.57;;;16.20;;
9124;SDS011;4597;48.730;9.114;2022-12-18T06:12:57;28.67;;;17.00;;
9124;SDS011;4597;48.730;9.114;2022-12-18T06:15:23;30.87;;;17.03;;
9124;SDS011;4597;48.730;9.114;2022-12-18T06:17:48;28.53;;;15.90;;
9124;SDS011;4597;48.730;9.114;2022-12-18T06:20:14;27.70;;;15.80;;
9124;SDS011;4597;48.730;9.114;2022-12-18T06:22:40;30.80;;;16.40;;
9124;SDS011;4597;48.730;9.114;2022-12-18T06:25:05;26.17;;;15.77;;
9124;SDS011;4597;48.730;9.114;2022-12-18T06:27:32;27.33;;;16.10;;
9124;SDS011;4597;48.730;9.114;2022-12-18T06:29:58;32.40;;;16.40;;
9124;SDS011;4597;48.730;9.114;2022-12-18T06:32:24;24.90;;;14.93;;
9124;SDS011;4597;48.730;9.114;2022-12-18T06:34:50;29.40;;;16.80;;
9124;SDS011;4597;48.730;9.114;2022-12-18T06:37:16;26.90;;;15.57;;
9124;SDS011;4597;48.730;9.114;2022-12-18T06:39:42;29.57;;;15.27;;
9124;SDS011;4597;48.730;9.114;2022-12-18T06:42:07;28.13;;;15.83;;
9124;SDS011;4597;48.730;9.114;2022-12-18T06:44:33;26.37;;;15.20;;
9124;SDS011;4597;48.730;9.114;2022-12-18T06:46:58;27.23;;;15.87;;
9124;SDS011;4597;48.730;9.114;2022-12-18T06:49:24;25.77;;;15.83;;
9124;SDS011;4597;48.730;9.114;2022-12-18T06:51:50;28.80;;;15.60;;
9124;SDS011;4597;48.730;9.114;2022-12-18T06:54:15;26.33;;;14.77;;
9124;SDS011;4597;48.730;9.114;2022-12-18T06:56:41;24.03;;;14.10;;
9124;SDS011;4597;48.730;9.114;2022-12-18T06:59:06;26.17;;;15.37;;
9124;SDS011;4597;48.730;9.114;2022-12-18T07:01:32;29.57;;;15.97;;
9124;SDS011;4597;48.730;9.114;2022-12-18T07:03:57;25.53;;;14.03;;
9124;SDS011;4597;48.730;9.114;2022-12-18T07:06:24;29.43;;;15.40;;
9124;SDS011;4597;48.730;9.114;2022-12-18T07:08:50;27.40;;;14.40;;
9124;SDS011;4597;48.730;9.114;2022-12-18T07:11:18;25.70;;;15.37;;
9124;SDS011;4597;48.730;9.114;2022-12-18T07:13:44;26.60;;;14.20;;
9124;SDS011;4597;48.730;9.114;2022-12-18T07:18:40;23.50;;;14.97;;
9124;SDS011;4597;48.730;9.114;2022-12-18T07:21:06;30.10;;;17.17;;
9124;SDS011;4597;48.730;9.114;2022-12-18T07:23:33;25.27;;;13.83;;
9124;SDS011;4597;48.730;9.114;2022-12-18T07:26:03;25.97;;;15.30;;
9124;SDS011;4597;48.730;9.114;2022-12-18T07:28:31;24.23;;;13.93;;
9124;SDS011;4597;48.730;9.114;2022-12-18T07:30:58;26.07;;;14.40;;
9124;SDS011;4597;48.730;9.114;2022-12-18T07:33:27;24.70;;;14.93;;
9124;SDS011;4597;48.730;9.114;2022-12-18T07:35:53;27.70;;;14.53;;
9124;SDS011;4597;48.730;9.114;2022-12-18T07:38:18;23.00;;;14.10;;
9124;SDS011;4597;48.730;9.114;2022-12-18T07:40:44;27.17;;;15.07;;
9124;SDS011;4597;48.730;9.114;2022-12-18T07:43:09;26.17;;;14.83;;
9124;SDS011;4597;48.730;9.114;2022-12-18T07:45:35;25.80;;;14.83;;
9124;SDS011;4597;48.730;9.114;2022-12-18T07:48:01;32.00;;;16.70;;
9124;SDS011;4597;48.730;9.114;2022-12-18T07:50:26;28.90;;;16.57;;
9124;SDS011;4597;48.730;9.114;2022-12-18T07:52:52;31.93;;;18.03;;
9124;SDS011;4597;48.730;9.114;2022-12-18T07:55:18;29.37;;;16.17;;
9124;SDS011;4597;48.730;9.114;2022-12-18T07:57:43;35.40;;;19.67;;
9124;SDS011;4597;48.730;9.114;2022-12-18T08:00:09;36.23;;;18.93;;
9124;SDS011;4597;48.730;9.114;2022-12-18T08:02:35;33.70;;;19.93;;
9124;SDS011;4597;48.730;9.114;2022-12-18T08:05:00;33.57;;;18.27;;
9124;SDS011;4597;48.730;9.114;2022-12-18T08:07:26;33.03;;;18.47;;
9124;SDS011;4597;48.730;9.114;2022-12-18T08:09:51;28.60;;;16.60;;
9124;SDS011;4597;48.730;9.114;2022-12-18T08:12:17;30.07;;;17.90;;
9124;SDS011;4597;48.730;9.114;2022-12-18T08:14:43;33.97;;;20.13;;
9124;SDS011;4597;48.730;9.114;2022-12-18T08:17:08;36.30;;;20.17;;
9124;SDS011;4597;48.730;9.114;2022-12-18T08:19:33;32.33;;;18.87;;
9124;SDS011;4597;48.730;9.114;2022-12-18T08:21:59;32.47;;;19.00;;
9124;SDS011;4597;48.730;9.114;2022-12-18T08:24:25;31.23;;;18.33;;
9124;SDS011;4597;48.730;9.114;2022-12-18T08:26:50;32.10;;;18.60;;
9124;SDS011;4597;48.730;9.114;2022-12-18T08:29:16;31.33;;;19.07;;
9124;SDS011;4597;48.730;9.114;2022-12-18T08:31:41;35.73;;;19.57;;
9124;SDS011;4597;48.730;9.114;2022-12-18T08:34:07;30.07;;;19.03;;
9124;SDS011;4597;48.730;9.114;2022-12-18T08:36:33;33.30;;;19.60;;
9124;SDS011;4597;48.730;9.114;2022-12-18T08:38:58;34.73;;;18.90;;
9124;SDS011;4597;48.730;9.114;2022-12-18T08:41:24;34.33;;;18.33;;
9124;SDS011;4597;48.730;9.114;2022-12-18T08:43:49;32.13;;;17.97;;
9124;SDS011;4597;48.730;9.114;2022-12-18T08:46:35;31.10;;;17.97;;
9124;SDS011;4597;48.730;9.114;2022-12-18T08:49:03;34.43;;;18.57;;
9124;SDS011;4597;48.730;9.114;2022-12-18T08:51:29;36.63;;;20.23;;
9124;SDS011;4597;48.730;9.114;2022-12-18T08:53:55;44.37;;;23.67;;
9124;SDS011;4597;48.730;9.114;2022-12-18T08:56:20;36.83;;;20.53;;
9124;SDS011;4597;48.730;9.114;2022-12-18T08:58:46;39.63;;;22.70;;
9124;SDS011;4597;48.730;9.114;2022-12-18T09:01:12;36.87;;;21.20;;
9124;SDS011;4597;48.730;9.114;2022-12-18T09:03:38;37.93;;;20.70;;
9124;SDS011;4597;48.730;9.114;2022-12-18T09:06:04;34.67;;;19.07;;
9124;SDS011;4597;48.730;9.114;2022-12-18T09:08:31;33.30;;;18.60;;
9124;SDS011;4597;48.730;9.114;2022-12-18T09:10:56;29.57;;;16.37;;
9124;SDS011;4597;48.730;9.114;2022-12-18T09:13:22;31.60;;;18.07;;
9124;SDS011;4597;48.730;9.114;2022-12-18T09:15:48;35.63;;;17.63;;
9124;SDS011;4597;48.730;9.114;2022-12-18T09:18:18;32.50;;;17.83;;
9124;SDS011;4597;48.730;9.114;2022-12-18T09:20:45;32.60;;;17.30;;
9124;SDS011;4597;48.730;9.114;2022-12-18T09:23:11;29.93;;;17.67;;
9124;SDS011;4597;48.730;9.114;2022-12-18T09:25:37;27.17;;;17.00;;
9124;SDS011;4597;48.730;9.114;2022-12-18T09:28:04;35.07;;;17.20;;
9124;SDS011;4597;48.730;9.114;2022-12-18T09:30:37;32.57;;;17.87;;
9124;SDS011;4597;48.730;9.114;2022-12-18T09:33:07;30.03;;;16.47;;
9124;SDS011;4597;48.730;9.114;2022-12-18T09:35:35;33.73;;;18.07;;
9124;SDS011;4597;48.730;9.114;2022-12-18T09:38:02;30.63;;;17.10;;
9124;SDS011;4597;48.730;9.114;2022-12-18T09:40:28;34.17;;;18.07;;
9124;SDS011;4597;48.730;9.114;2022-12-18T09:43:00;36.17;;;17.70;;
9124;SDS011;4597;48.730;9.114;2022-12-18T09:45:40;31.23;;;17.57;;
9124;SDS011;4597;48.730;9.114;2022-12-18T09:48:22;33.53;;;17.70;;
9124;SDS011;4597;48.730;9.114;2022-12-18T09:50:51;33.63;;;17.60;;
9124;SDS011;4597;48.730;9.114;2022-12-18T09:53:23;35.00;;;19.00;;
9124;SDS011;4597;48.730;9.114;2022-12-18T09:55:52;29.83;;;18.43;;
9124;SDS011;4597;48.730;9.114;2022-12-18T09:58:24;33.77;;;18.20;;
9124;SDS011;4597;48.730;9.114;2022-12-18T10:00:55;31.90;;;18.40;;
9124;SDS011;4597;48.730;9.114;2022-12-18T10:03:21;35.73;;;18.53;;
9124;SDS011;4597;48.730;9.114;2022-12-18T10:14:01;32.63;;;17.77;;
9124;SDS011;4597;48.730;9.114;2022-12-18T10:19:51;31.13;;;17.50;;
9124;SDS011;4597;48.730;9.114;2022-12-18T10:25:24;30.87;;;17.60;;
9124;SDS011;4597;48.730;9.114;2022-12-18T10:27:54;35.17;;;19.00;;
9124;SDS011;4597;48.730;9.114;2022-12-18T10:30:23;32.20;;;18.17;;
9124;SDS011;4597;48.730;9.114;2022-12-18T10:32:50;32.97;;;19.60;;
9124;SDS011;4597;48.730;9.114;2022-12-18T10:35:24;35.03;;;19.13;;
9124;SDS011;4597;48.730;9.114;2022-12-18T10:40:49;29.23;;;17.63;;
9124;SDS011;4597;48.730;9.114;2022-12-18T10:43:25;33.00;;;18.37;;
9124;SDS011;4597;48.730;9.114;2022-12-18T10:45:59;32.10;;;17.80;;
9124;SDS011;4597;48.730;9.114;2022-12-18T10:48:28;32.13;;;17.70;;
9124;SDS011;4597;48.730;9.114;2022-12-18T10:50:55;32.63;;;19.13;;
9124;SDS011;4597;48.730;9.114;2022-12-18T10:53:24;37.30;;;18.37;;
9124;SDS011;4597;48.730;9.114;2022-12-18T10:55:52;30.83;;;19.03;;
9124;SDS011;4597;48.730;9.114;2022-12-18T10:58:27;34.33;;;18.17;;
9124;SDS011;4597;48.730;9.114;2022-12-18T11:01:06;31.77;;;17.93;;
9124;SDS011;4597;48.730;9.114;2022-12-18T11:03:58;34.60;;;17.90;;
9124;SDS011;4597;48.730;9.114;2022-12-18T11:06:26;29.03;;;17.87;;
9124;SDS011;4597;48.730;9.114;2022-12-18T11:08:59;32.63;;;18.27;;
9124;SDS011;4597;48.730;9.114;2022-12-18T11:11:29;32.03;;;18.33;;
9124;SDS011;4597;48.730;9.114;2022-12-18T11:16:27;31.30;;;17.47;;
9124;SDS011;4597;48.730;9.114;2022-12-18T11:18:55;29.97;;;17.60;;
9124;SDS011;4597;48.730;9.114;2022-12-18T11:21:40;32.00;;;20.50;;
9124;SDS011;4597;48.730;9.114;2022-12-18T11:24:07;32.47;;;20.57;;
9124;SDS011;4597;48.730;9.114;2022-12-18T11:26:51;36.80;;;20.80;;
9124;SDS011;4597;48.730;9.114;2022-12-18T11:29:17;35.30;;;19.40;;
9124;SDS011;4597;48.730;9.114;2022-12-18T11:31:48;32.23;;;18.13;;
9124;SDS011;4597;48.730;9.114;2022-12-18T11:34:16;40.13;;;20.37;;
9124;SDS011;4597;48.730;9.114;2022-12-18T11:36:51;35.33;;;19.97;;
9124;SDS011;4597;48.730;9.114;2022-12-18T11:39:25;39.23;;;21.27;;
9124;SDS011;4597;48.730;9.114;2022-12-18T11:42:02;44.47;;;23.40;;
9124;SDS011;4597;48.730;9.114;2022-12-18T11:44:52;34.97;;;19.37;;
9124;SDS011;4597;48.730;9.114;2022-12-18T11:50:03;53.87;;;27.47;;
9124;SDS011;4597;48.730;9.114;2022-12-18T11:52:37;42.53;;;23.47;;
9124;SDS011;4597;48.730;9.114;2022-12-18T11:55:07;55.57;;;30.00;;
9124;SDS011;4597;48.730;9.114;2022-12-18T12:00:28;39.27;;;21.23;;
9124;SDS011;4597;48.730;9.114;2022-12-18T12:03:09;36.63;;;19.93;;
9124;SDS011;4597;48.730;9.114;2022-12-18T12:11:06;35.40;;;20.57;;
9124;SDS011;4597;48.730;9.114;2022-12-18T12:21:39;29.83;;;16.80;;
9124;SDS011;4597;48.730;9.114;2022-12-18T12:30:16;35.67;;;19.30;;
9124;SDS011;4597;48.730;9.114;2022-12-18T12:40:52;38.10;;;26.20;;
9124;SDS011;4597;48.730;9.114;2022-12-18T12:43:59;58.93;;;35.87;;
9124;SDS011;4597;48.730;9.114;2022-12-18T12:46:29;31.70;;;19.07;;
9124;SDS011;4597;48.730;9.114;2022-12-18T12:49:01;52.67;;;30.83;;
9124;SDS011;4597;48.730;9.114;2022-12-18T12:51:34;46.13;;;28.10;;
9124;SDS011;4597;48.730;9.114;2022-12-18T12:54:05;33.03;;;20.67;;
9124;SDS011;4597;48.730;9.114;2022-12-18T12:56:40;30.93;;;19.70;;
9124;SDS011;4597;48.730;9.114;2022-12-18T12:59:29;30.27;;;20.37;;
9124;SDS011;4597;48.730;9.114;2022-12-18T13:02:17;28.67;;;18.27;;
9124;SDS011;4597;48.730;9.114;2022-12-18T13:07:47;28.00;;;16.90;;
9124;SDS011;4597;48.730;9.114;2022-12-18T13:15:26;30.30;;;19.40;;
9124;SDS011;4597;48.730;9.114;2022-12-18T13:20:33;31.40;;;18.83;;
9124;SDS011;4597;48.730;9.114;2022-12-18T13:25:49;30.43;;;17.23;;
9124;SDS011;4597;48.730;9.114;2022-12-18T13:30:58;31.10;;;18.33;;
9124;SDS011;4597;48.730;9.114;2022-12-18T13:35:51;29.27;;;18.33;;
9124;SDS011;4597;48.730;9.114;2022-12-18T13:38:37;30.07;;;17.57;;
9124;SDS011;4597;48.730;9.114;2022-12-18T13:48:49;29.27;;;18.07;;
9124;SDS011;4597;48.730;9.114;2022-12-18T13:51:24;33.70;;;18.87;;
9124;SDS011;4597;48.730;9.114;2022-12-18T13:53:52;30.47;;;17.60;;
9124;SDS011;4597;48.730;9.114;2022-12-18T13:56:22;29.27;;;17.63;;
9124;SDS011;4597;48.730;9.114;2022-12-18T14:01:45;30.33;;;17.90;;
9124;SDS011;4597;48.730;9.114;2022-12-18T14:04:24;29.17;;;17.23;;
9124;SDS011;4597;48.730;9.114;2022-12-18T14:07:04;29.17;;;17.07;;
9124;SDS011;4597;48.730;9.114;2022-12-18T14:09:36;29.43;;;17.70;;
9124;SDS011;4597;48.730;9.114;2022-12-18T14:12:05;25.77;;;15.97;;
9124;SDS011;4597;48.730;9.114;2022-12-18T14:14:50;33.33;;;17.47;;
9124;SDS011;4597;48.730;9.114;2022-12-18T14:17:17;28.57;;;16.57;;
9124;SDS011;4597;48.730;9.114;2022-12-18T14:19:48;27.17;;;16.30;;
9124;SDS011;4597;48.730;9.114;2022-12-18T14:22:17;25.43;;;15.50;;
9124;SDS011;4597;48.730;9.114;2022-12-18T14:25:38;28.13;;;16.13;;
9124;SDS011;4597;48.730;9.114;2022-12-18T14:27:41;28.90;;;16.80;;
9124;SDS011;4597;48.730;9.114;2022-12-18T14:30:31;27.40;;;16.00;;
9124;SDS011;4597;48.730;9.114;2022-12-18T14:33:13;27.33;;;16.07;;
9124;SDS011;4597;48.730;9.114;2022-12-18T14:35:42;28.60;;;16.50;;
9124;SDS011;4597;48.730;9.114;2022-12-18T14:40:45;27.83;;;16.73;;
9124;SDS011;4597;48.730;9.114;2022-12-18T14:43:11;26.67;;;16.10;;
9124;SDS011;4597;48.730;9.114;2022-12-18T14:45:38;25.00;;;15.40;;
9124;SDS011;4597;48.730;9.114;2022-12-18T14:48:06;31.07;;;16.50;;
9124;SDS011;4597;48.730;9.114;2022-12-18T14:50:34;30.80;;;16.93;;
9124;SDS011;4597;48.730;9.114;2022-12-18T14:52:59;48.23;;;26.83;;
9124;SDS011;4597;48.730;9.114;2022-12-18T14:55:25;35.37;;;19.57;;
9124;SDS011;4597;48.730;9.114;2022-12-18T14:57:51;33.53;;;17.60;;
9124;SDS011;4597;48.730;9.114;2022-12-18T15:00:20;29.30;;;16.07;;
9124;SDS011;4597;48.730;9.114;2022-12-18T15:02:49;28.87;;;16.90;;
9124;SDS011;4597;48.730;9.114;2022-12-18T15:05:19;32.63;;;18.23;;
9124;SDS011;4597;48.730;9.114;2022-12-18T15:07:56;30.03;;;16.93;;
9124;SDS011;4597;48.730;9.114;2022-12-18T15:10:27;29.47;;;17.80;;
9124;SDS011;4597;48.730;9.114;2022-12-18T15:23:37;33.07;;;18.47;;
9124;SDS011;4597;48.730;9.114;2022-12-18T15:26:11;33.57;;;18.97;;
9124;SDS011;4597;48.730;9.114;2022-12-18T15:28:49;30.97;;;16.87;;
9124;SDS011;4597;48.730;9.114;2022-12-18T15:36:22;37.67;;;20.40;;
9124;SDS011;4597;48.730;9.114;2022-12-18T15:38:49;36.07;;;19.87;;
9124;SDS011;4597;48.730;9.114;2022-12-18T15:41:16;36.00;;;20.53;;
9124;SDS011;4597;48.730;9.114;2022-12-18T15:43:43;35.57;;;19.00;;
9124;SDS011;4597;48.730;9.114;2022-12-18T15:46:16;35.40;;;19.77;;
9124;SDS011;4597;48.730;9.114;2022-12-18T15:48:47;34.53;;;18.33;;
9124;SDS011;4597;48.730;9.114;2022-12-18T15:54:00;36.80;;;19.47;;
9124;SDS011;4597;48.730;9.114;2022-12-18T15:56:28;39.50;;;20.47;;
9124;SDS011;4597;48.730;9.114;2022-12-18T15:59:13;37.03;;;20.47;;
9124;SDS011;4597;48.730;9.114;2022-12-18T16:01:41;35.80;;;18.97;;
9124;SDS011;4597;48.730;9.114;2022-12-18T16:04:12;35.47;;;19.73;;
9124;SDS011;4597;48.730;9.114;2022-12-18T16:06:39;36.33;;;20.27;;
9124;SDS011;4597;48.730;9.114;2022-12-18T16:09:05;33.77;;;19.50;;
9124;SDS011;4597;48.730;9.114;2022-12-18T16:11:32;36.47;;;21.03;;
9124;SDS011;4597;48.730;9.114;2022-12-18T16:16:45;39.77;;;19.90;;
9124;SDS011;4597;48.730;9.114;2022-12-18T16:19:11;43.47;;;21.13;;
9124;SDS011;4597;48.730;9.114;2022-12-18T16:21:37;34.00;;;19.97;;
9124;SDS011;4597;48.730;9.114;2022-12-18T16:24:03;35.57;;;19.83;;
9124;SDS011;4597;48.730;9.114;2022-12-18T16:26:32;32.57;;;19.03;;
9124;SDS011;4597;48.730;9.114;2022-12-18T16:28:57;36.83;;;20.03;;
9124;SDS011;4597;48.730;9.114;2022-12-18T16:31:23;41.27;;;21.33;;
9124;SDS011;4597;48.730;9.114;2022-12-18T16:33:48;36.57;;;21.43;;
9124;SDS011;4597;48.730;9.114;2022-12-18T16:36:14;34.33;;;20.73;;
9124;SDS011;4597;48.730;9.114;2022-12-18T16:38:39;37.63;;;20.87;;
9124;SDS011;4597;48.730;9.114;2022-12-18T16:41:17;36.80;;;20.83;;
9124;SDS011;4597;48.730;9.114;2022-12-18T16:43:56;32.83;;;20.00;;
9124;SDS011;4597;48.730;9.114;2022-12-18T16:46:22;33.17;;;19.63;;
9124;SDS011;4597;48.730;9.114;2022-12-18T16:48:47;35.57;;;20.50;;
9124;SDS011;4597;48.730;9.114;2022-12-18T16:51:13;34.00;;;18.33;;
9124;SDS011;4597;48.730;9.114;2022-12-18T16:53:38;36.20;;;20.20;;
9124;SDS011;4597;48.730;9.114;2022-12-18T16:56:04;33.73;;;19.23;;
9124;SDS011;4597;48.730;9.114;2022-12-18T16:58:30;34.97;;;20.43;;
9124;SDS011;4597;48.730;9.114;2022-12-18T17:00:55;34.83;;;19.37;;
9124;SDS011;4597;48.730;9.114;2022-12-18T17:03:21;34.60;;;19.53;;
9124;SDS011;4597;48.730;9.114;2022-12-18T17:05:47;34.13;;;18.57;;
9124;SDS011;4597;48.730;9.114;2022-12-18T17:08:12;37.00;;;20.37;;
9124;SDS011;4597;48.730;9.114;2022-12-18T17:10:38;34.70;;;19.70;;